KADW/ADW METAR and TAF weather

Enter ICAO airport designator
Station Type Date Time Source
KADW METAR 2018/12/11 00:56 UTC NOAA

KADW 110056Z AUTO 35003KT 10SM CLR M03/M06 A3017 RMK AO2 SLP227 T10261063 $


Station Type Date Time Source
KADW Decoded METAR 2018/12/11 00:56 UTC NOAA

Camp Springs / Andrews Air Force Base, MD, United States (KADW) 38-49N 076-51W 88M
Dec 10, 2018 - 07:56 PM EST / 2018.12.11 0056 UTC
Wind: from the N (350 degrees) at 3 MPH (3 KT):0
Visibility: 10 mile(s):0
Sky conditions: clear
Temperature: 27.3 F (-2.6 C)
Dew Point: 20.7 F (-6.3 C)
Relative Humidity: 75%
Pressure (altimeter): 30.17 in. Hg (1021 hPa)
ob: KADW 110056Z AUTO 35003KT 10SM CLR M03/M06 A3017 RMK AO2 SLP227 T10261063
cycle: 1

Station Type Date Time Source
KADW TAF 2018/12/11 01:03 UTC NOAA

TAF TAF KADW 110100Z 1101/1207 VRB06KT 9999 SKC QNH3005INS TX03/1119Z TNM05/1110Z


Example: see airport list